sensor_id;sensor_type;location;lat;lon;timestamp;P1;durP1;ratioP1;P2;durP2;ratioP2
76021;SDS011;64718;52.124;6.226;2023-05-10T00:01:05;11.43;;;5.68;;
76021;SDS011;64718;52.124;6.226;2023-05-10T00:03:32;11.00;;;6.50;;
76021;SDS011;64718;52.124;6.226;2023-05-10T00:05:59;10.23;;;5.57;;
76021;SDS011;64718;52.124;6.226;2023-05-10T00:08:25;13.90;;;6.43;;
76021;SDS011;64718;52.124;6.226;2023-05-10T00:10:52;11.95;;;6.47;;
76021;SDS011;64718;52.124;6.226;2023-05-10T00:13:20;12.32;;;6.30;;
76021;SDS011;64718;52.124;6.226;2023-05-10T00:15:48;11.52;;;5.85;;
76021;SDS011;64718;52.124;6.226;2023-05-10T00:18:15;13.23;;;6.22;;
76021;SDS011;64718;52.124;6.226;2023-05-10T00:20:42;16.33;;;6.20;;
76021;SDS011;64718;52.124;6.226;2023-05-10T00:23:10;14.43;;;6.88;;
76021;SDS011;64718;52.124;6.226;2023-05-10T00:25:37;15.07;;;7.28;;
76021;SDS011;64718;52.124;6.226;2023-05-10T00:28:04;12.82;;;6.60;;
76021;SDS011;64718;52.124;6.226;2023-05-10T00:30:31;15.15;;;6.97;;
76021;SDS011;64718;52.124;6.226;2023-05-10T00:32:58;13.98;;;8.13;;
76021;SDS011;64718;52.124;6.226;2023-05-10T00:35:25;17.77;;;8.07;;
76021;SDS011;64718;52.124;6.226;2023-05-10T00:37:52;18.67;;;7.38;;
76021;SDS011;64718;52.124;6.226;2023-05-10T00:40:18;16.85;;;7.65;;
76021;SDS011;64718;52.124;6.226;2023-05-10T00:42:45;17.10;;;8.80;;
76021;SDS011;64718;52.124;6.226;2023-05-10T00:45:12;20.85;;;8.48;;
76021;SDS011;64718;52.124;6.226;2023-05-10T00:47:40;20.02;;;8.55;;
76021;SDS011;64718;52.124;6.226;2023-05-10T00:50:07;21.95;;;8.93;;
76021;SDS011;64718;52.124;6.226;2023-05-10T00:52:34;22.63;;;9.10;;
76021;SDS011;64718;52.124;6.226;2023-05-10T00:55:01;24.17;;;10.32;;
76021;SDS011;64718;52.124;6.226;2023-05-10T00:57:28;21.25;;;9.88;;
76021;SDS011;64718;52.124;6.226;2023-05-10T00:59:55;25.90;;;9.55;;
76021;SDS011;64718;52.124;6.226;2023-05-10T01:02:23;22.40;;;9.82;;
76021;SDS011;64718;52.124;6.226;2023-05-10T01:04:51;23.60;;;9.77;;
76021;SDS011;64718;52.124;6.226;2023-05-10T01:07:19;25.45;;;9.50;;
76021;SDS011;64718;52.124;6.226;2023-05-10T01:09:45;26.88;;;10.32;;
76021;SDS011;64718;52.124;6.226;2023-05-10T01:12:12;23.80;;;10.63;;
76021;SDS011;64718;52.124;6.226;2023-05-10T01:14:39;25.77;;;9.73;;
76021;SDS011;64718;52.124;6.226;2023-05-10T01:17:06;27.77;;;9.40;;
76021;SDS011;64718;52.124;6.226;2023-05-10T01:19:34;21.65;;;9.25;;
76021;SDS011;64718;52.124;6.226;2023-05-10T01:22:05;26.13;;;10.30;;
76021;SDS011;64718;52.124;6.226;2023-05-10T01:28:03;23.98;;;9.43;;
76021;SDS011;64718;52.124;6.226;2023-05-10T01:30:52;22.58;;;9.77;;
76021;SDS011;64718;52.124;6.226;2023-05-10T01:33:36;24.30;;;9.95;;
76021;SDS011;64718;52.124;6.226;2023-05-10T01:36:08;27.40;;;10.43;;
76021;SDS011;64718;52.124;6.226;2023-05-10T01:38:42;32.72;;;12.27;;
76021;SDS011;64718;52.124;6.226;2023-05-10T01:41:16;23.70;;;9.77;;
76021;SDS011;64718;52.124;6.226;2023-05-10T01:43:48;25.95;;;10.50;;
76021;SDS011;64718;52.124;6.226;2023-05-10T01:46:23;27.23;;;10.93;;
76021;SDS011;64718;52.124;6.226;2023-05-10T01:48:55;29.25;;;11.82;;
76021;SDS011;64718;52.124;6.226;2023-05-10T01:51:26;31.92;;;11.77;;
76021;SDS011;64718;52.124;6.226;2023-05-10T01:54:04;32.72;;;12.13;;
76021;SDS011;64718;52.124;6.226;2023-05-10T01:56:32;35.03;;;13.18;;
76021;SDS011;64718;52.124;6.226;2023-05-10T01:59:01;40.17;;;12.90;;
76021;SDS011;64718;52.124;6.226;2023-05-10T02:01:31;35.42;;;12.07;;
76021;SDS011;64718;52.124;6.226;2023-05-10T02:04:01;44.97;;;15.75;;
76021;SDS011;64718;52.124;6.226;2023-05-10T02:08:57;38.45;;;14.23;;
76021;SDS011;64718;52.124;6.226;2023-05-10T02:11:24;46.83;;;14.80;;
76021;SDS011;64718;52.124;6.226;2023-05-10T02:13:51;47.15;;;15.45;;
76021;SDS011;64718;52.124;6.226;2023-05-10T02:16:20;45.58;;;15.05;;
76021;SDS011;64718;52.124;6.226;2023-05-10T02:18:50;52.28;;;16.85;;
76021;SDS011;64718;52.124;6.226;2023-05-10T02:21:20;54.67;;;17.95;;
76021;SDS011;64718;52.124;6.226;2023-05-10T02:23:48;56.78;;;17.77;;
76021;SDS011;64718;52.124;6.226;2023-05-10T02:26:16;54.20;;;17.60;;
76021;SDS011;64718;52.124;6.226;2023-05-10T02:28:46;54.50;;;16.38;;
76021;SDS011;64718;52.124;6.226;2023-05-10T02:31:13;44.60;;;16.08;;
76021;SDS011;64718;52.124;6.226;2023-05-10T02:33:41;57.40;;;16.80;;
76021;SDS011;64718;52.124;6.226;2023-05-10T02:36:10;52.08;;;17.90;;
76021;SDS011;64718;52.124;6.226;2023-05-10T02:38:40;50.53;;;16.88;;
76021;SDS011;64718;52.124;6.226;2023-05-10T02:43:35;54.15;;;17.23;;
76021;SDS011;64718;52.124;6.226;2023-05-10T02:46:05;59.30;;;19.40;;
76021;SDS011;64718;52.124;6.226;2023-05-10T02:48:32;57.05;;;18.17;;
76021;SDS011;64718;52.124;6.226;2023-05-10T02:51:00;55.17;;;17.85;;
76021;SDS011;64718;52.124;6.226;2023-05-10T02:53:31;59.38;;;18.73;;
76021;SDS011;64718;52.124;6.226;2023-05-10T02:56:01;63.60;;;18.88;;
76021;SDS011;64718;52.124;6.226;2023-05-10T02:58:32;70.50;;;19.77;;
76021;SDS011;64718;52.124;6.226;2023-05-10T03:00:59;66.65;;;21.90;;
76021;SDS011;64718;52.124;6.226;2023-05-10T03:03:25;70.57;;;20.38;;
76021;SDS011;64718;52.124;6.226;2023-05-10T03:05:52;80.30;;;22.17;;
76021;SDS011;64718;52.124;6.226;2023-05-10T03:08:20;69.68;;;20.65;;
76021;SDS011;64718;52.124;6.226;2023-05-10T03:10:50;76.45;;;21.90;;
76021;SDS011;64718;52.124;6.226;2023-05-10T03:13:29;83.13;;;22.77;;
76021;SDS011;64718;52.124;6.226;2023-05-10T03:16:04;84.88;;;23.17;;
76021;SDS011;64718;52.124;6.226;2023-05-10T03:18:37;80.18;;;23.83;;
76021;SDS011;64718;52.124;6.226;2023-05-10T03:21:08;78.53;;;22.48;;
76021;SDS011;64718;52.124;6.226;2023-05-10T03:23:39;85.22;;;24.65;;
76021;SDS011;64718;52.124;6.226;2023-05-10T03:26:09;94.00;;;24.35;;
76021;SDS011;64718;52.124;6.226;2023-05-10T03:28:40;80.45;;;23.73;;
76021;SDS011;64718;52.124;6.226;2023-05-10T03:31:07;87.35;;;25.20;;
76021;SDS011;64718;52.124;6.226;2023-05-10T03:33:35;94.18;;;26.88;;
76021;SDS011;64718;52.124;6.226;2023-05-10T03:36:01;86.40;;;23.45;;
76021;SDS011;64718;52.124;6.226;2023-05-10T03:38:28;80.47;;;25.17;;
76021;SDS011;64718;52.124;6.226;2023-05-10T03:40:54;87.10;;;25.08;;
76021;SDS011;64718;52.124;6.226;2023-05-10T03:43:21;85.07;;;26.48;;
76021;SDS011;64718;52.124;6.226;2023-05-10T03:45:49;79.97;;;22.70;;
76021;SDS011;64718;52.124;6.226;2023-05-10T03:48:15;82.43;;;24.63;;
76021;SDS011;64718;52.124;6.226;2023-05-10T03:50:42;80.95;;;24.95;;
76021;SDS011;64718;52.124;6.226;2023-05-10T03:53:08;88.53;;;25.92;;
76021;SDS011;64718;52.124;6.226;2023-05-10T03:55:35;83.93;;;25.98;;
76021;SDS011;64718;52.124;6.226;2023-05-10T03:58:01;81.13;;;24.48;;
76021;SDS011;64718;52.124;6.226;2023-05-10T04:00:28;82.72;;;24.80;;
76021;SDS011;64718;52.124;6.226;2023-05-10T04:02:56;86.00;;;25.00;;
76021;SDS011;64718;52.124;6.226;2023-05-10T04:05:22;75.13;;;24.50;;
76021;SDS011;64718;52.124;6.226;2023-05-10T04:07:49;77.82;;;23.08;;
76021;SDS011;64718;52.124;6.226;2023-05-10T04:10:16;70.18;;;23.73;;
76021;SDS011;64718;52.124;6.226;2023-05-10T04:12:42;75.50;;;25.10;;
76021;SDS011;64718;52.124;6.226;2023-05-10T04:15:09;89.40;;;24.92;;
76021;SDS011;64718;52.124;6.226;2023-05-10T04:17:36;81.53;;;26.02;;
76021;SDS011;64718;52.124;6.226;2023-05-10T04:20:04;89.88;;;26.88;;
76021;SDS011;64718;52.124;6.226;2023-05-10T04:22:32;80.55;;;24.42;;
76021;SDS011;64718;52.124;6.226;2023-05-10T04:24:58;83.75;;;24.35;;
76021;SDS011;64718;52.124;6.226;2023-05-10T04:27:25;88.53;;;25.85;;
76021;SDS011;64718;52.124;6.226;2023-05-10T04:29:52;84.47;;;26.15;;
76021;SDS011;64718;52.124;6.226;2023-05-10T04:32:18;80.25;;;25.50;;
76021;SDS011;64718;52.124;6.226;2023-05-10T04:34:45;79.22;;;23.35;;
76021;SDS011;64718;52.124;6.226;2023-05-10T04:37:13;68.95;;;24.42;;
76021;SDS011;64718;52.124;6.226;2023-05-10T04:39:39;66.75;;;23.00;;
76021;SDS011;64718;52.124;6.226;2023-05-10T04:42:06;69.88;;;21.50;;
76021;SDS011;64718;52.124;6.226;2023-05-10T04:44:33;67.00;;;22.42;;
76021;SDS011;64718;52.124;6.226;2023-05-10T04:46:59;69.55;;;23.83;;
76021;SDS011;64718;52.124;6.226;2023-05-10T04:49:27;61.45;;;20.20;;
76021;SDS011;64718;52.124;6.226;2023-05-10T04:51:53;58.47;;;20.17;;
76021;SDS011;64718;52.124;6.226;2023-05-10T04:54:21;58.20;;;19.40;;
76021;SDS011;64718;52.124;6.226;2023-05-10T04:56:48;67.43;;;23.73;;
76021;SDS011;64718;52.124;6.226;2023-05-10T04:59:14;69.53;;;22.55;;
76021;SDS011;64718;52.124;6.226;2023-05-10T05:01:41;66.75;;;21.15;;
76021;SDS011;64718;52.124;6.226;2023-05-10T05:04:07;67.00;;;22.63;;
76021;SDS011;64718;52.124;6.226;2023-05-10T05:06:34;72.95;;;23.27;;
76021;SDS011;64718;52.124;6.226;2023-05-10T05:09:00;64.97;;;21.35;;
76021;SDS011;64718;52.124;6.226;2023-05-10T05:11:28;64.18;;;23.95;;
76021;SDS011;64718;52.124;6.226;2023-05-10T05:13:55;66.57;;;22.85;;
76021;SDS011;64718;52.124;6.226;2023-05-10T05:16:23;67.05;;;23.75;;
76021;SDS011;64718;52.124;6.226;2023-05-10T05:18:50;74.13;;;25.27;;
76021;SDS011;64718;52.124;6.226;2023-05-10T05:21:17;68.93;;;24.00;;
76021;SDS011;64718;52.124;6.226;2023-05-10T05:23:44;68.30;;;23.58;;
76021;SDS011;64718;52.124;6.226;2023-05-10T05:26:11;73.75;;;24.48;;
76021;SDS011;64718;52.124;6.226;2023-05-10T05:28:39;72.68;;;24.42;;
76021;SDS011;64718;52.124;6.226;2023-05-10T05:31:06;66.25;;;22.88;;
76021;SDS011;64718;52.124;6.226;2023-05-10T05:33:34;71.57;;;23.75;;
76021;SDS011;64718;52.124;6.226;2023-05-10T05:36:00;67.80;;;23.70;;
76021;SDS011;64718;52.124;6.226;2023-05-10T05:38:27;70.28;;;25.50;;
76021;SDS011;64718;52.124;6.226;2023-05-10T05:40:54;82.35;;;24.02;;
76021;SDS011;64718;52.124;6.226;2023-05-10T05:43:20;67.32;;;23.75;;
76021;SDS011;64718;52.124;6.226;2023-05-10T05:45:48;66.00;;;22.73;;
76021;SDS011;64718;52.124;6.226;2023-05-10T05:48:15;66.30;;;22.67;;
76021;SDS011;64718;52.124;6.226;2023-05-10T05:50:41;65.72;;;23.42;;
76021;SDS011;64718;52.124;6.226;2023-05-10T05:53:08;61.60;;;22.65;;
76021;SDS011;64718;52.124;6.226;2023-05-10T05:55:34;63.50;;;23.00;;
76021;SDS011;64718;52.124;6.226;2023-05-10T05:58:01;64.07;;;22.08;;
76021;SDS011;64718;52.124;6.226;2023-05-10T06:00:28;56.22;;;19.80;;
76021;SDS011;64718;52.124;6.226;2023-05-10T06:02:55;59.15;;;21.35;;
76021;SDS011;64718;52.124;6.226;2023-05-10T06:05:22;52.70;;;20.70;;
76021;SDS011;64718;52.124;6.226;2023-05-10T06:07:48;58.67;;;21.70;;
76021;SDS011;64718;52.124;6.226;2023-05-10T06:10:15;59.10;;;21.73;;
76021;SDS011;64718;52.124;6.226;2023-05-10T06:12:41;52.90;;;19.27;;
76021;SDS011;64718;52.124;6.226;2023-05-10T06:15:08;54.45;;;19.80;;
76021;SDS011;64718;52.124;6.226;2023-05-10T06:17:36;50.03;;;20.05;;
76021;SDS011;64718;52.124;6.226;2023-05-10T06:20:05;56.08;;;19.83;;
76021;SDS011;64718;52.124;6.226;2023-05-10T06:22:33;51.50;;;19.33;;
76021;SDS011;64718;52.124;6.226;2023-05-10T06:24:59;45.50;;;18.58;;
76021;SDS011;64718;52.124;6.226;2023-05-10T06:27:26;38.08;;;16.83;;
76021;SDS011;64718;52.124;6.226;2023-05-10T06:29:53;39.85;;;16.77;;
76021;SDS011;64718;52.124;6.226;2023-05-10T06:32:20;40.53;;;15.73;;
76021;SDS011;64718;52.124;6.226;2023-05-10T06:34:46;43.58;;;16.15;;
76021;SDS011;64718;52.124;6.226;2023-05-10T06:37:14;42.50;;;17.08;;
76021;SDS011;64718;52.124;6.226;2023-05-10T06:39:41;41.45;;;17.00;;
76021;SDS011;64718;52.124;6.226;2023-05-10T06:42:07;39.83;;;16.40;;
76021;SDS011;64718;52.124;6.226;2023-05-10T06:44:35;45.58;;;17.15;;
76021;SDS011;64718;52.124;6.226;2023-05-10T06:47:01;51.65;;;18.85;;
76021;SDS011;64718;52.124;6.226;2023-05-10T06:49:28;45.80;;;16.35;;
76021;SDS011;64718;52.124;6.226;2023-05-10T06:51:55;44.13;;;17.15;;
76021;SDS011;64718;52.124;6.226;2023-05-10T06:54:23;41.22;;;16.80;;
76021;SDS011;64718;52.124;6.226;2023-05-10T06:56:49;41.40;;;17.10;;
76021;SDS011;64718;52.124;6.226;2023-05-10T06:59:16;44.80;;;16.92;;
76021;SDS011;64718;52.124;6.226;2023-05-10T07:01:44;42.20;;;18.30;;
76021;SDS011;64718;52.124;6.226;2023-05-10T07:04:10;44.60;;;16.70;;
76021;SDS011;64718;52.124;6.226;2023-05-10T07:06:37;45.25;;;17.63;;
76021;SDS011;64718;52.124;6.226;2023-05-10T07:09:04;39.83;;;15.52;;
76021;SDS011;64718;52.124;6.226;2023-05-10T07:11:32;41.65;;;16.42;;
76021;SDS011;64718;52.124;6.226;2023-05-10T07:13:58;53.78;;;18.52;;
76021;SDS011;64718;52.124;6.226;2023-05-10T07:16:25;42.10;;;17.70;;
76021;SDS011;64718;52.124;6.226;2023-05-10T07:18:51;51.25;;;18.80;;
76021;SDS011;64718;52.124;6.226;2023-05-10T07:21:18;46.33;;;18.10;;
76021;SDS011;64718;52.124;6.226;2023-05-10T07:23:45;49.03;;;19.25;;
76021;SDS011;64718;52.124;6.226;2023-05-10T07:26:11;50.95;;;20.63;;
76021;SDS011;64718;52.124;6.226;2023-05-10T07:28:41;56.85;;;22.08;;
76021;SDS011;64718;52.124;6.226;2023-05-10T07:31:07;59.88;;;21.85;;
76021;SDS011;64718;52.124;6.226;2023-05-10T07:33:34;64.68;;;20.60;;
76021;SDS011;64718;52.124;6.226;2023-05-10T07:36:00;60.25;;;22.92;;
76021;SDS011;64718;52.124;6.226;2023-05-10T07:38:27;60.38;;;20.90;;
76021;SDS011;64718;52.124;6.226;2023-05-10T07:40:53;58.05;;;20.52;;
76021;SDS011;64718;52.124;6.226;2023-05-10T07:43:20;57.30;;;21.85;;
76021;SDS011;64718;52.124;6.226;2023-05-10T07:45:48;59.72;;;20.88;;
76021;SDS011;64718;52.124;6.226;2023-05-10T07:48:14;51.85;;;20.48;;
76021;SDS011;64718;52.124;6.226;2023-05-10T07:50:41;58.30;;;19.60;;
76021;SDS011;64718;52.124;6.226;2023-05-10T07:53:07;55.72;;;19.85;;
76021;SDS011;64718;52.124;6.226;2023-05-10T07:55:34;59.67;;;22.05;;
76021;SDS011;64718;52.124;6.226;2023-05-10T07:58:00;57.92;;;20.20;;
76021;SDS011;64718;52.124;6.226;2023-05-10T08:00:27;61.15;;;21.42;;
76021;SDS011;64718;52.124;6.226;2023-05-10T08:02:55;60.83;;;20.70;;
76021;SDS011;64718;52.124;6.226;2023-05-10T08:05:21;54.42;;;19.38;;
76021;SDS011;64718;52.124;6.226;2023-05-10T08:07:48;52.70;;;19.45;;
76021;SDS011;64718;52.124;6.226;2023-05-10T08:10:14;51.35;;;19.38;;
76021;SDS011;64718;52.124;6.226;2023-05-10T08:12:41;51.45;;;18.88;;
76021;SDS011;64718;52.124;6.226;2023-05-10T08:15:08;47.85;;;18.40;;
76021;SDS011;64718;52.124;6.226;2023-05-10T08:17:35;44.63;;;17.35;;
76021;SDS011;64718;52.124;6.226;2023-05-10T08:20:04;52.85;;;20.10;;
76021;SDS011;64718;52.124;6.226;2023-05-10T08:22:32;46.40;;;18.30;;
76021;SDS011;64718;52.124;6.226;2023-05-10T08:24:58;45.17;;;16.90;;
76021;SDS011;64718;52.124;6.226;2023-05-10T08:27:25;43.50;;;16.92;;
76021;SDS011;64718;52.124;6.226;2023-05-10T08:29:51;43.20;;;15.55;;
76021;SDS011;64718;52.124;6.226;2023-05-10T08:32:18;36.60;;;15.50;;
76021;SDS011;64718;52.124;6.226;2023-05-10T08:34:44;45.05;;;15.18;;
76021;SDS011;64718;52.124;6.226;2023-05-10T08:37:12;44.10;;;16.73;;
76021;SDS011;64718;52.124;6.226;2023-05-10T08:39:39;38.38;;;14.85;;
76021;SDS011;64718;52.124;6.226;2023-05-10T08:42:05;39.40;;;15.70;;
76021;SDS011;64718;52.124;6.226;2023-05-10T08:44:34;43.35;;;15.38;;
76021;SDS011;64718;52.124;6.226;2023-05-10T08:47:02;32.47;;;12.52;;
76021;SDS011;64718;52.124;6.226;2023-05-10T08:49:32;36.30;;;14.25;;
76021;SDS011;64718;52.124;6.226;2023-05-10T08:51:59;35.58;;;13.55;;
76021;SDS011;64718;52.124;6.226;2023-05-10T08:54:30;34.85;;;13.88;;
76021;SDS011;64718;52.124;6.226;2023-05-10T08:56:58;30.17;;;13.48;;
76021;SDS011;64718;52.124;6.226;2023-05-10T08:59:24;33.25;;;12.57;;
76021;SDS011;64718;52.124;6.226;2023-05-10T09:01:51;32.80;;;13.23;;
76021;SDS011;64718;52.124;6.226;2023-05-10T09:04:19;33.92;;;13.52;;
76021;SDS011;64718;52.124;6.226;2023-05-10T09:06:46;36.13;;;14.00;;
76021;SDS011;64718;52.124;6.226;2023-05-10T09:09:13;33.90;;;13.75;;
76021;SDS011;64718;52.124;6.226;2023-05-10T09:11:42;33.55;;;13.38;;
76021;SDS011;64718;52.124;6.226;2023-05-10T09:14:09;36.78;;;14.05;;
76021;SDS011;64718;52.124;6.226;2023-05-10T09:16:37;29.33;;;13.85;;
76021;SDS011;64718;52.124;6.226;2023-05-10T09:19:04;32.80;;;12.85;;
76021;SDS011;64718;52.124;6.226;2023-05-10T09:21:30;30.95;;;12.65;;
76021;SDS011;64718;52.124;6.226;2023-05-10T09:23:57;30.10;;;11.77;;
76021;SDS011;64718;52.124;6.226;2023-05-10T09:26:29;22.52;;;10.27;;
76021;SDS011;64718;52.124;6.226;2023-05-10T09:28:57;25.02;;;11.95;;
76021;SDS011;64718;52.124;6.226;2023-05-10T09:31:26;23.98;;;10.55;;
76021;SDS011;64718;52.124;6.226;2023-05-10T09:34:09;25.98;;;11.20;;
76021;SDS011;64718;52.124;6.226;2023-05-10T09:36:36;24.35;;;11.18;;
76021;SDS011;64718;52.124;6.226;2023-05-10T09:39:03;22.58;;;11.07;;
76021;SDS011;64718;52.124;6.226;2023-05-10T09:41:30;23.90;;;10.52;;
76021;SDS011;64718;52.124;6.226;2023-05-10T09:43:57;20.67;;;10.68;;
76021;SDS011;64718;52.124;6.226;2023-05-10T09:46:24;23.83;;;11.40;;
76021;SDS011;64718;52.124;6.226;2023-05-10T09:48:51;19.92;;;10.18;;
76021;SDS011;64718;52.124;6.226;2023-05-10T09:51:20;22.00;;;10.15;;
76021;SDS011;64718;52.124;6.226;2023-05-10T09:53:47;20.00;;;10.27;;
76021;SDS011;64718;52.124;6.226;2023-05-10T09:56:27;20.73;;;9.43;;
76021;SDS011;64718;52.124;6.226;2023-05-10T09:59:03;20.00;;;9.55;;
76021;SDS011;64718;52.124;6.226;2023-05-10T10:01:29;17.27;;;9.05;;
76021;SDS011;64718;52.124;6.226;2023-05-10T10:03:56;18.25;;;8.48;;
76021;SDS011;64718;52.124;6.226;2023-05-10T10:06:23;14.82;;;8.32;;
76021;SDS011;64718;52.124;6.226;2023-05-10T10:08:50;18.90;;;7.40;;
76021;SDS011;64718;52.124;6.226;2023-05-10T10:11:17;14.52;;;7.30;;
76021;SDS011;64718;52.124;6.226;2023-05-10T10:13:44;16.27;;;9.02;;
76021;SDS011;64718;52.124;6.226;2023-05-10T10:16:12;15.63;;;7.88;;
76021;SDS011;64718;52.124;6.226;2023-05-10T10:18:39;20.38;;;9.32;;
76021;SDS011;64718;52.124;6.226;2023-05-10T10:21:06;17.35;;;8.50;;
76021;SDS011;64718;52.124;6.226;2023-05-10T10:23:34;17.88;;;8.32;;
76021;SDS011;64718;52.124;6.226;2023-05-10T10:26:01;16.13;;;8.82;;
76021;SDS011;64718;52.124;6.226;2023-05-10T10:28:31;14.52;;;7.47;;
76021;SDS011;64718;52.124;6.226;2023-05-10T10:31:13;17.45;;;8.52;;
76021;SDS011;64718;52.124;6.226;2023-05-10T10:33:55;17.50;;;9.20;;
76021;SDS011;64718;52.124;6.226;2023-05-10T10:36:26;13.55;;;7.10;;
76021;SDS011;64718;52.124;6.226;2023-05-10T10:38:56;10.73;;;6.25;;
76021;SDS011;64718;52.124;6.226;2023-05-10T10:41:29;11.82;;;6.75;;
76021;SDS011;64718;52.124;6.226;2023-05-10T10:47:00;13.88;;;7.22;;
76021;SDS011;64718;52.124;6.226;2023-05-10T10:49:30;12.23;;;7.40;;
76021;SDS011;64718;52.124;6.226;2023-05-10T10:52:12;12.45;;;6.57;;
76021;SDS011;64718;52.124;6.226;2023-05-10T10:54:40;11.82;;;6.57;;
76021;SDS011;64718;52.124;6.226;2023-05-10T10:57:10;15.10;;;8.48;;
76021;SDS011;64718;52.124;6.226;2023-05-10T10:59:40;15.07;;;8.27;;
76021;SDS011;64718;52.124;6.226;2023-05-10T11:02:10;15.57;;;7.70;;
76021;SDS011;64718;52.124;6.226;2023-05-10T11:04:56;13.27;;;7.70;;
76021;SDS011;64718;52.124;6.226;2023-05-10T11:07:23;16.40;;;8.63;;
76021;SDS011;64718;52.124;6.226;2023-05-10T11:09:49;14.95;;;7.82;;
76021;SDS011;64718;52.124;6.226;2023-05-10T11:12:16;14.52;;;8.18;;
76021;SDS011;64718;52.124;6.226;2023-05-10T11:14:43;13.88;;;8.55;;
76021;SDS011;64718;52.124;6.226;2023-05-10T11:17:26;13.10;;;8.00;;
76021;SDS011;64718;52.124;6.226;2023-05-10T11:20:06;14.85;;;7.78;;
76021;SDS011;64718;52.124;6.226;2023-05-10T11:22:48;14.30;;;8.30;;
76021;SDS011;64718;52.124;6.226;2023-05-10T11:25:16;16.15;;;8.15;;
76021;SDS011;64718;52.124;6.226;2023-05-10T11:27:43;12.27;;;8.10;;
76021;SDS011;64718;52.124;6.226;2023-05-10T11:30:10;15.57;;;8.50;;
76021;SDS011;64718;52.124;6.226;2023-05-10T11:32:39;15.32;;;8.05;;
76021;SDS011;64718;52.124;6.226;2023-05-10T11:35:21;11.05;;;5.85;;
76021;SDS011;64718;52.124;6.226;2023-05-10T11:37:48;14.63;;;8.95;;
76021;SDS011;64718;52.124;6.226;2023-05-10T11:40:14;17.52;;;8.70;;
76021;SDS011;64718;52.124;6.226;2023-05-10T11:42:41;17.00;;;8.30;;
76021;SDS011;64718;52.124;6.226;2023-05-10T11:45:08;15.40;;;7.65;;
76021;SDS011;64718;52.124;6.226;2023-05-10T11:47:35;12.63;;;7.78;;
76021;SDS011;64718;52.124;6.226;2023-05-10T11:50:03;11.65;;;6.72;;
76021;SDS011;64718;52.124;6.226;2023-05-10T11:52:35;13.20;;;7.38;;
76021;SDS011;64718;52.124;6.226;2023-05-10T11:55:02;12.90;;;7.57;;
76021;SDS011;64718;52.124;6.226;2023-05-10T11:57:29;13.38;;;6.95;;
76021;SDS011;64718;52.124;6.226;2023-05-10T11:59:56;13.27;;;6.78;;
76021;SDS011;64718;52.124;6.226;2023-05-10T12:02:23;13.02;;;7.57;;
76021;SDS011;64718;52.124;6.226;2023-05-10T12:04:50;11.35;;;7.15;;
76021;SDS011;64718;52.124;6.226;2023-05-10T12:07:18;12.05;;;7.13;;
76021;SDS011;64718;52.124;6.226;2023-05-10T12:12:37;8.13;;;4.82;;
76021;SDS011;64718;52.124;6.226;2023-05-10T12:15:05;8.73;;;4.90;;
76021;SDS011;64718;52.124;6.226;2023-05-10T12:17:36;8.52;;;4.88;;
76021;SDS011;64718;52.124;6.226;2023-05-10T12:20:13;9.18;;;4.57;;
76021;SDS011;64718;52.124;6.226;2023-05-10T12:22:42;6.00;;;3.75;;
76021;SDS011;64718;52.124;6.226;2023-05-10T12:25:10;6.43;;;3.55;;
76021;SDS011;64718;52.124;6.226;2023-05-10T12:27:36;5.63;;;3.90;;
76021;SDS011;64718;52.124;6.226;2023-05-10T12:30:03;7.18;;;3.92;;
76021;SDS011;64718;52.124;6.226;2023-05-10T12:32:37;4.47;;;2.45;;
76021;SDS011;64718;52.124;6.226;2023-05-10T12:35:04;4.47;;;2.17;;
76021;SDS011;64718;52.124;6.226;2023-05-10T12:37:32;2.90;;;1.95;;
76021;SDS011;64718;52.124;6.226;2023-05-10T12:40:02;4.72;;;3.13;;
76021;SDS011;64718;52.124;6.226;2023-05-10T12:42:30;5.68;;;3.47;;
76021;SDS011;64718;52.124;6.226;2023-05-10T12:44:56;4.28;;;3.30;;
76021;SDS011;64718;52.124;6.226;2023-05-10T12:47:23;4.93;;;3.03;;
76021;SDS011;64718;52.124;6.226;2023-05-10T12:49:49;6.68;;;3.63;;
76021;SDS011;64718;52.124;6.226;2023-05-10T12:52:17;6.13;;;3.75;;
76021;SDS011;64718;52.124;6.226;2023-05-10T12:54:43;4.65;;;2.63;;
76021;SDS011;64718;52.124;6.226;2023-05-10T12:57:11;5.13;;;3.45;;
76021;SDS011;64718;52.124;6.226;2023-05-10T12:59:38;6.50;;;3.30;;
76021;SDS011;64718;52.124;6.226;2023-05-10T13:02:05;6.32;;;3.72;;
76021;SDS011;64718;52.124;6.226;2023-05-10T13:04:32;4.82;;;3.38;;
76021;SDS011;64718;52.124;6.226;2023-05-10T13:06:58;8.30;;;3.95;;
76021;SDS011;64718;52.124;6.226;2023-05-10T13:09:25;5.68;;;3.67;;
76021;SDS011;64718;52.124;6.226;2023-05-10T13:11:53;5.90;;;4.30;;
76021;SDS011;64718;52.124;6.226;2023-05-10T13:14:21;4.57;;;3.70;;
76021;SDS011;64718;52.124;6.226;2023-05-10T13:16:48;6.22;;;3.75;;
76021;SDS011;64718;52.124;6.226;2023-05-10T13:19:15;7.15;;;4.18;;
76021;SDS011;64718;52.124;6.226;2023-05-10T13:21:42;5.97;;;3.85;;
76021;SDS011;64718;52.124;6.226;2023-05-10T13:24:09;5.47;;;3.55;;
76021;SDS011;64718;52.124;6.226;2023-05-10T13:26:38;4.68;;;3.30;;
76021;SDS011;64718;52.124;6.226;2023-05-10T13:29:05;4.47;;;3.47;;
76021;SDS011;64718;52.124;6.226;2023-05-10T13:31:33;6.22;;;3.97;;
76021;SDS011;64718;52.124;6.226;2023-05-10T13:34:00;5.60;;;3.75;;
76021;SDS011;64718;52.124;6.226;2023-05-10T13:36:27;5.68;;;3.97;;
76021;SDS011;64718;52.124;6.226;2023-05-10T13:38:53;7.20;;;3.35;;
76021;SDS011;64718;52.124;6.226;2023-05-10T13:41:20;5.85;;;3.60;;
76021;SDS011;64718;52.124;6.226;2023-05-10T13:43:47;6.30;;;3.83;;
76021;SDS011;64718;52.124;6.226;2023-05-10T13:46:13;7.43;;;4.82;;
76021;SDS011;64718;52.124;6.226;2023-05-10T13:48:41;5.55;;;3.83;;
76021;SDS011;64718;52.124;6.226;2023-05-10T13:51:08;5.68;;;3.67;;
76021;SDS011;64718;52.124;6.226;2023-05-10T13:53:34;5.65;;;3.80;;
76021;SDS011;64718;52.124;6.226;2023-05-10T13:56:01;4.70;;;4.05;;
76021;SDS011;64718;52.124;6.226;2023-05-10T13:58:28;5.28;;;4.05;;
76021;SDS011;64718;52.124;6.226;2023-05-10T14:00:55;7.30;;;3.50;;
76021;SDS011;64718;52.124;6.226;2023-05-10T14:03:22;6.55;;;3.97;;
76021;SDS011;64718;52.124;6.226;2023-05-10T14:05:49;5.65;;;3.25;;
76021;SDS011;64718;52.124;6.226;2023-05-10T14:08:16;5.15;;;3.38;;
76021;SDS011;64718;52.124;6.226;2023-05-10T14:10:42;7.75;;;3.90;;
76021;SDS011;64718;52.124;6.226;2023-05-10T14:13:09;6.88;;;4.45;;
76021;SDS011;64718;52.124;6.226;2023-05-10T14:15:35;5.68;;;3.45;;
76021;SDS011;64718;52.124;6.226;2023-05-10T14:18:02;5.25;;;3.40;;
76021;SDS011;64718;52.124;6.226;2023-05-10T14:20:28;5.60;;;4.00;;
76021;SDS011;64718;52.124;6.226;2023-05-10T14:25:24;9.38;;;3.90;;
76021;SDS011;64718;52.124;6.226;2023-05-10T14:27:51;7.57;;;4.32;;
76021;SDS011;64718;52.124;6.226;2023-05-10T14:30:19;5.65;;;3.88;;
76021;SDS011;64718;52.124;6.226;2023-05-10T14:32:46;6.43;;;4.10;;
76021;SDS011;64718;52.124;6.226;2023-05-10T14:35:12;6.60;;;3.97;;
76021;SDS011;64718;52.124;6.226;2023-05-10T14:37:39;5.82;;;3.75;;
76021;SDS011;64718;52.124;6.226;2023-05-10T14:40:07;6.35;;;4.30;;
76021;SDS011;64718;52.124;6.226;2023-05-10T14:42:35;7.68;;;4.40;;
76021;SDS011;64718;52.124;6.226;2023-05-10T14:45:01;5.30;;;4.30;;
76021;SDS011;64718;52.124;6.226;2023-05-10T14:47:28;6.57;;;4.55;;
76021;SDS011;64718;52.124;6.226;2023-05-10T14:49:55;6.88;;;4.22;;